Twin Springs, Nevada Weather observations

Data are for observation ending at time listed.
 Day   Time    Ave.   Ave.  Ave.  Vector   Max.   Stn.    Total    Solar   Ave.  
  of    of     Air    Rel.  Wind   Wind    Wind   Baro.  Precip.   Rad.    Soil  
Year   Day     Temp.  Hum.  Speed  Dir.    Gust   Pres.                    Temp. 
2014   (PST)    F      %     mph   deg.    mph     mb.     in.     W/m2     F   
------------------------------------------------------------------------------
 107    8:00   49.2    39    3.4   311      6.5    844     0.00     491    54.7
 107    9:00   55.9    31    3.5   300      7.2    843     0.00     683    54.9
 107   10:00   63.3    25    1.0   332      5.3    843     0.00     863    56.3
 107   11:00   68.0    20    8.5   123     19.5    842     0.00     936    58.9
 107   12:00   72.1    16   12.5   126     21.8    841     0.00    1011    62.2
 107   13:00   76.0    14   11.9   156     24.1    840     0.00     989    65.0
 107   14:00   77.9    12   12.5   184     27.0    839     0.00     843    66.5
 107   15:00   77.6    12   13.5   195     26.7    838     0.00     745    67.7
 107   16:00   76.2    12   14.4   194     26.0    838     0.00     528    68.8
 107   17:00   74.5    12   12.5   194     22.5    838     0.00     253    69.8
 107   18:00   72.4    13   11.1   200     25.8    838     0.00      74    70.0
 107   19:00   69.6    14   10.7   181     19.4    838     0.00       4    69.5
 107   20:00   67.1    17    9.0   162     18.1    839     0.00       0    68.7
 107   21:00   65.6    18    8.6   160     24.8    839     0.00       0    67.7
 107   22:00   67.4    18   14.0   178     26.1    838     0.00       0    66.7
 107   23:00   66.6    18   12.5   184     22.9    838     0.00       0    66.0
 108    0:00   64.7    18    7.9   137     19.1    839     0.00       0    65.4
 108    1:00   64.0    18   10.6   169     19.0    838     0.00       0    64.8
 108    2:00   63.2    18    6.1   111     19.6    838     0.00       0    64.2
 108    3:00   60.8    21    4.9   144     12.9    839     0.00       0    63.7
 108    4:00   57.7    24    5.4   107     12.9    839     0.00       0    63.2
 108    5:00   56.1    26    2.4   166     10.4    839     0.00       0    62.5
 108    6:00   56.6    27    6.9   122     11.1    839     0.00      28    61.8
 108    7:00   59.1    27    6.8   109     12.3    840     0.00      96    61.2

Return to Twin Springs, Nevada graphs page.


Western Regional Climate Center,wrcc@dri.edu